BIENTÔT MET'MAP
version 2.0 !

Prévue avant fin octobre,
la nouvelle version sera
plus belle, plus complète
et hébergée sur un serveur
3 fois plus puissant...
et toujours gratuite !


Pas compatible ?
Essayez la version Mobile !

SE CONNECTER : | S'inscrire | Disclaimer | Découvrir Orbifly |
Code OACI :

TAF - LGSR Santorini - 27 May 2020 05:55 UTC - Data Source NOAA   


- Altitude de l'aérodrome : 127 ft
- Code IATA : JTR
- Pas de NOTAMs connus.


LGSR - Santorini

Dernier METAR connu : 2015/08/11 07:50 LGSR 110750Z 30011KT CAVOK 30/15 Q1011
TAF TAF LGSR
Valide du 27 à 00h jusqu'au 28 à 00h UTC


262300Z 2700/2724 34015KT 9999 SCT025
PROB30
TEMPO 2700/2712 5000 RA FEW020TCU BKN025

Source NOAA


MET'MAP, la Météo Aéronautique d'un coup d'oeil ! - Copyright ORBIFLY Décembre 2007

Développement & Programmation : Alexandra Zaïnal
Co-Développement : Marc-Olivier Méhu
Soutien technique & logistique : Manuel Goepfert
Conception & Financement : Baudouin d'Aumeries